Phoenix, AZ (85008)

11:57 AM MST on March 03, 2015 (GMT -0700)
Cambridge Ave. | Change Station
CLOSE
Current Station
Personal Weather Station
Location: Phoenix, AZ
Elevation: 1270 ft
Nearby Weather Stations

Elev 1270 ft 33.48 °N, 111.96 °W | Updated 7 minutes ago

Mostly Cloudy
Mostly Cloudy
65.5 °F
Feels Like 65.5 °F
N
3.7
Wind Variable Wind from East

Today
High -- | Low -- °F
--% Chance of Precip.
Yesterday
High -- | Low -- °F
Precip. -- in
6:54 AM 6:26 PM
Waxing Gibbous, 97% visible
Pressure 29.90 in
Visibility 10.0 miles
Clouds Mostly Cloudy 3800 ft
Mostly Cloudy 7000 ft
Dew Point 44 °F
Humidity 46%
Rainfall 0.00 in
Snow Depth Not available.
UV 4 out of 12
Pollen 8.50 out of 12
Air Quality Not available.
Flu Activity Not available.
METAR KPHX 031851Z 18006KT 10SM BKN038 BKN070 17/07 A2992 RMK AO2 SLP123 T01720067

More Conditions Fewer Conditions

Pressure 29.90 in
Visibility 10.0 miles
Clouds Mostly Cloudy 3800 ft
Mostly Cloudy 7000 ft
Dew Point 44 °F
Humidity 46%
Rainfall 0.00 in
Snow Depth Not available.
UV 4 out of 12
Pollen 8.50 out of 12
Air Quality Not available.
Flu Activity Not available.
METAR KPHX 031851Z 18006KT 10SM BKN038 BKN070 17/07 A2992 RMK AO2 SLP123 T01720067

More Conditions Fewer Conditions

10-Day Weather Forecast

Almanac

Astronomy

Mar. 03, 2015 Rise Set
Actual Time
Civil Twilight
Nautical Twilight
Astronomical Twilight
Moon
Length of Visible Light
Length of Day
Tomorrow will be .
, % of the Moon is Illuminated

Today's Extremes

State Highs State Lows

Community

WunderPhotos

Upload Photos

1,802,198 photos uploaded!

WunderBlogs® & News

Nearby

Air Quality

  Air Quality AQ Index Pollutant
Not available.

Snow Depth

Station Depth Elevation

Earthquake Activity

City Distance Mag. Time & Date
Minimum magnitude displayed is 2.5.

Coastal Water Temperatures

Place Temperature

Nearby Weather Stations